Momignies, Belgium
Current Conditions -  °F | °C
As of 1:55 AM on Sunday 21 Dec 2014 (Local Time) from EBFS Reporting Station
Few Clouds Few Clouds  
Wind Chill: 34°   Ceiling: Unl
Heat Index: 39°   Visibility: 6mi
Dew Point: 36°   Wind: 8mph
Humidity: 87%   Direction: 270°W
Pressure: 30.45"   Gusts: NA
Location:  50.03°N, 4.17°E
Report Text: EBFS 210055Z AUTO 27007KT 9999 FEW023/// 04/02 Q1031 BLU
Loading
Personal Weather Stations






























Interactive Weather Map New forecast layout! Learn more

10-Day Weather Forecast

Advertisements
Track Severe Weather on mobile